createdAt,value
2019-02-16T00:04:31.336Z,7.43
2019-02-16T00:09:37.592Z,5.90
2019-02-16T00:14:43.809Z,7.27
2019-02-16T00:19:50.020Z,10.00
2019-02-16T00:24:56.231Z,9.50
2019-02-16T00:30:02.450Z,13.48
2019-02-16T00:35:08.731Z,7.22
2019-02-16T00:40:15.049Z,8.73
2019-02-16T00:45:21.336Z,7.70
2019-02-16T00:50:27.554Z,7.28
2019-02-16T00:55:33.809Z,7.80
2019-02-16T01:00:40.042Z,9.17
2019-02-16T01:05:46.294Z,8.45
2019-02-16T01:10:52.497Z,9.35
2019-02-16T01:15:58.666Z,8.40
2019-02-16T01:21:05.593Z,10.63
2019-02-16T01:26:11.900Z,7.43
2019-02-16T01:31:18.155Z,8.70
2019-02-16T01:36:24.474Z,9.23
2019-02-16T01:41:30.831Z,7.80
2019-02-16T01:46:37.124Z,11.00
2019-02-16T01:51:43.436Z,6.33
2019-02-16T01:56:49.712Z,7.93
2019-02-16T02:01:56.020Z,6.93
2019-02-16T02:07:02.824Z,8.67
2019-02-16T02:12:09.195Z,10.37
2019-02-16T02:17:15.525Z,9.30
2019-02-16T02:22:21.808Z,7.93
2019-02-16T02:27:28.196Z,7.67
2019-02-16T02:32:34.482Z,7.42
2019-02-16T02:37:40.793Z,12.37
2019-02-16T02:42:47.098Z,16.83
2019-02-16T02:47:53.365Z,15.77
2019-02-16T02:52:59.768Z,15.65
2019-02-16T02:58:06.233Z,11.17
2019-02-16T03:03:12.513Z,12.33
2019-02-16T03:08:18.991Z,8.80
2019-02-16T03:13:25.273Z,9.48
2019-02-16T03:18:31.614Z,9.63
2019-02-16T03:23:37.871Z,8.10
2019-02-16T03:28:51.406Z,9.00
2019-02-16T03:34:05.935Z,6.80
2019-02-16T03:39:20.971Z,9.57
2019-02-16T03:44:27.276Z,6.93
2019-02-16T03:49:33.585Z,7.70
2019-02-16T03:54:40.058Z,6.93
2019-02-16T03:59:46.500Z,6.47
2019-02-16T04:04:52.815Z,7.93
2019-02-16T04:09:59.195Z,8.17
2019-02-16T04:15:05.535Z,7.37
2019-02-16T04:20:11.734Z,10.80
2019-02-16T04:25:17.950Z,7.47
2019-02-16T04:30:24.224Z,6.20
2019-02-16T04:35:30.392Z,8.17
2019-02-16T04:40:36.740Z,7.47
2019-02-16T04:45:42.929Z,7.90
2019-02-16T04:50:49.400Z,6.57
2019-02-16T04:55:55.611Z,7.40
2019-02-16T05:01:01.868Z,9.47
2019-02-16T05:06:08.160Z,7.57
2019-02-16T05:11:14.334Z,9.33
2019-02-16T05:16:20.538Z,7.93
2019-02-16T05:21:26.708Z,7.13
2019-02-16T05:26:33.003Z,10.73
2019-02-16T05:31:39.228Z,6.23
2019-02-16T05:36:45.513Z,7.72
2019-02-16T05:41:51.684Z,9.13
2019-02-16T05:46:58.036Z,13.80
2019-02-16T05:52:05.236Z,8.23
2019-02-16T05:57:11.553Z,7.53
2019-02-16T06:02:17.810Z,6.97
2019-02-16T06:07:23.984Z,11.20
2019-02-16T06:12:30.203Z,8.27
2019-02-16T06:17:36.376Z,9.60
2019-02-16T06:22:42.585Z,10.35
2019-02-16T06:27:50.420Z,10.57
2019-02-16T06:32:56.713Z,9.00
2019-02-16T06:38:02.980Z,9.17
2019-02-16T06:43:09.223Z,10.70
2019-02-16T06:48:15.498Z,9.70
2019-02-16T06:53:22.705Z,9.28
2019-02-16T06:58:29.014Z,9.27
2019-02-16T07:03:35.221Z,13.83
2019-02-16T07:08:43.974Z,10.53
2019-02-16T07:13:49.738Z,12.47
2019-02-16T07:19:02.840Z,10.77
2019-02-16T07:24:09.240Z,9.63
2019-02-16T07:29:15.613Z,12.33
2019-02-16T07:34:21.894Z,9.73
2019-02-16T07:39:28.149Z,11.80
2019-02-16T07:44:53.326Z,10.03
2019-02-16T07:50:30.403Z,11.17
2019-02-16T07:56:01.499Z,11.33
2019-02-16T08:01:33.987Z,12.13
2019-02-16T08:07:02.939Z,11.38
2019-02-16T08:12:22.182Z,11.57
2019-02-16T08:17:53.106Z,12.65
2019-02-16T08:23:21.219Z,16.47
2019-02-16T08:28:52.611Z,9.88
2019-02-16T08:34:15.840Z,12.93
2019-02-16T08:39:29.730Z,10.73
2019-02-16T08:44:50.156Z,11.03
2019-02-16T08:50:14.003Z,11.55
2019-02-16T08:55:35.779Z,11.50
2019-02-16T09:01:01.250Z,9.30
2019-02-16T09:06:26.576Z,10.10
2019-02-16T09:12:05.838Z,10.40
2019-02-16T09:17:33.247Z,10.50
2019-02-16T09:23:07.361Z,11.03
2019-02-16T09:28:21.999Z,13.13
2019-02-16T09:33:47.198Z,11.35
2019-02-16T09:39:10.703Z,11.85
2019-02-16T09:44:34.440Z,14.27
2019-02-16T09:49:58.260Z,14.70
2019-02-16T09:55:39.835Z,13.33
2019-02-16T10:01:10.950Z,16.43
2019-02-16T10:06:37.603Z,14.77
2019-02-16T10:11:57.804Z,14.93
2019-02-16T10:17:34.927Z,13.83
2019-02-16T10:23:18.296Z,16.20
2019-02-16T10:28:39.721Z,14.73
2019-02-16T10:33:55.659Z,18.23
2019-02-16T10:39:36.474Z,17.13
2019-02-16T10:44:59.746Z,16.30
2019-02-16T10:50:21.715Z,17.83
2019-02-16T10:55:45.313Z,17.10
2019-02-16T11:01:13.316Z,17.73
2019-02-16T11:06:41.588Z,18.27
2019-02-16T11:12:21.557Z,18.93
2019-02-16T11:17:45.252Z,19.40
2019-02-16T11:22:58.441Z,18.50
2019-02-16T11:28:27.135Z,16.75
2019-02-16T11:34:01.096Z,20.47
2019-02-16T11:39:26.447Z,19.87
2019-02-16T11:45:00.742Z,17.17
2019-02-16T11:50:24.538Z,24.17
2019-02-16T11:55:58.457Z,19.90
2019-02-16T12:01:24.129Z,24.52
2019-02-16T12:06:43.511Z,19.37
2019-02-16T12:12:14.578Z,20.43
2019-02-16T12:17:38.643Z,20.10
2019-02-16T12:22:55.454Z,18.43
2019-02-16T12:28:23.870Z,22.47
2019-02-16T12:33:41.711Z,22.03
2019-02-16T12:39:04.851Z,19.23
2019-02-16T12:44:32.862Z,22.05
2019-02-16T12:50:04.148Z,22.73
2019-02-16T12:55:38.446Z,21.37
2019-02-16T13:01:02.097Z,22.27
2019-02-16T13:06:26.034Z,20.02
2019-02-16T13:11:51.339Z,25.30
2019-02-16T13:17:15.534Z,25.67
2019-02-16T13:22:43.623Z,24.43
2019-02-16T13:28:07.090Z,21.87
2019-02-16T13:33:23.228Z,21.27
2019-02-16T13:38:39.668Z,24.67
2019-02-16T13:44:04.863Z,24.20
2019-02-16T13:49:22.550Z,25.30
2019-02-16T13:54:40.627Z,21.67
2019-02-16T14:00:04.100Z,20.90
2019-02-16T14:05:16.779Z,23.10
2019-02-16T14:10:31.859Z,24.40
2019-02-16T14:15:52.211Z,20.13
2019-02-16T14:20:58.555Z,24.55
2019-02-16T14:26:05.433Z,23.05
2019-02-16T14:31:12.412Z,25.03
2019-02-16T14:36:19.426Z,21.50
2019-02-16T14:41:25.793Z,18.37
2019-02-16T14:46:32.116Z,18.73
2019-02-16T14:51:38.327Z,17.33
2019-02-16T14:56:44.563Z,17.33
2019-02-16T15:01:50.801Z,19.97
2019-02-16T15:06:58.173Z,21.03
2019-02-16T15:12:05.395Z,19.32
2019-02-16T15:17:11.633Z,22.22
2019-02-16T15:22:17.951Z,21.57
2019-02-16T15:27:24.210Z,21.23
2019-02-16T15:32:30.429Z,23.40
2019-02-16T15:37:36.664Z,23.80
2019-02-16T15:42:42.873Z,23.70
2019-02-16T15:47:49.110Z,20.40
2019-02-16T15:52:55.422Z,21.95
2019-02-16T15:58:01.745Z,23.03
2019-02-16T16:03:08.416Z,22.33
2019-02-16T16:08:33.633Z,22.37
2019-02-16T16:13:57.444Z,21.77
2019-02-16T16:19:34.418Z,24.00
2019-02-16T16:25:02.630Z,23.53
2019-02-16T16:30:28.047Z,20.90
2019-02-16T16:35:40.459Z,21.12
2019-02-16T16:40:53.818Z,20.80
2019-02-16T16:46:37.080Z,21.33
2019-02-16T16:52:01.532Z,19.63
2019-02-16T16:57:29.814Z,21.97
2019-02-16T17:02:53.123Z,23.03
2019-02-16T17:08:18.388Z,24.33
2019-02-16T17:13:40.089Z,36.60
2019-02-16T17:19:09.340Z,34.40
2019-02-16T17:24:27.864Z,28.20
2019-02-16T17:29:53.050Z,31.93
2019-02-16T17:35:15.091Z,26.13
2019-02-16T17:40:46.266Z,31.47
2019-02-16T17:46:14.233Z,35.57
2019-02-16T17:51:33.088Z,32.35
2019-02-16T17:57:16.541Z,31.23
2019-02-16T18:02:42.647Z,33.33
2019-02-16T18:08:17.091Z,30.67
2019-02-16T18:13:42.435Z,31.37
2019-02-16T18:19:03.002Z,31.73
2019-02-16T18:24:43.413Z,31.20
2019-02-16T18:30:17.464Z,33.23
2019-02-16T18:35:42.714Z,28.77
2019-02-16T18:41:00.449Z,32.23
2019-02-16T18:46:22.330Z,27.13
2019-02-16T18:51:37.931Z,29.12
2019-02-16T18:57:21.328Z,31.37
2019-02-16T19:03:04.547Z,29.67
2019-02-16T19:08:32.071Z,34.13
2019-02-16T19:13:46.590Z,36.85
2019-02-16T19:19:24.071Z,33.20
2019-02-16T19:24:37.233Z,29.87
2019-02-16T19:30:11.279Z,30.57
2019-02-16T19:35:36.506Z,32.33
2019-02-16T19:40:49.089Z,32.28
2019-02-16T19:46:05.873Z,29.30
2019-02-16T19:51:19.132Z,31.10
2019-02-16T19:56:36.239Z,29.20
2019-02-16T20:02:01.483Z,32.43
2019-02-16T20:07:32.800Z,29.73
2019-02-16T20:13:13.124Z,31.40
2019-02-16T20:18:47.435Z,27.80
2019-02-16T20:24:08.036Z,32.63
2019-02-16T20:29:36.899Z,31.10
2019-02-16T20:34:59.911Z,31.80
2019-02-16T20:40:19.711Z,30.32
2019-02-16T20:45:44.164Z,29.13
2019-02-16T20:51:07.884Z,29.48
2019-02-16T20:56:35.807Z,29.57
2019-02-16T21:01:59.468Z,28.07
2019-02-16T21:07:16.769Z,31.83
2019-02-16T21:12:40.454Z,30.07
2019-02-16T21:18:20.522Z,29.82
2019-02-16T21:23:52.341Z,27.10
2019-02-16T21:29:13.610Z,27.80
2019-02-16T21:34:30.826Z,27.63
2019-02-16T21:39:42.741Z,28.00
2019-02-16T21:45:08.181Z,29.63
2019-02-16T21:50:42.238Z,40.63
2019-02-16T21:56:08.927Z,42.67
2019-02-16T22:01:46.395Z,35.83
2019-02-16T22:07:29.928Z,33.93
2019-02-16T22:12:54.032Z,36.23
2019-02-16T22:18:00.312Z,35.92
2019-02-16T22:23:07.589Z,37.17
2019-02-16T22:28:18.689Z,40.43
2019-02-16T22:33:21.823Z,35.85
2019-02-16T22:38:28.032Z,38.27
2019-02-16T22:43:34.298Z,38.17
2019-02-16T22:48:40.593Z,38.28
2019-02-16T22:53:46.921Z,42.97
2019-02-16T22:58:53.227Z,38.78
2019-02-16T23:03:59.441Z,37.67
2019-02-16T23:09:11.810Z,39.38
2019-02-16T23:14:18.255Z,38.77
2019-02-16T23:19:24.519Z,32.78
2019-02-16T23:24:30.766Z,36.43
2019-02-16T23:29:37.093Z,36.43
2019-02-16T23:34:43.332Z,38.80
2019-02-16T23:39:49.654Z,32.50
2019-02-16T23:44:55.927Z,34.50
2019-02-16T23:50:02.236Z,32.43
2019-02-16T23:55:08.876Z,36.23
